Terminal Aerodrome Forecast
Issued by NWS Sioux Falls, SD

Home | Current Version | Previous Version | Graphics & Text | Print | Product List | Glossary Off
Versions: 1 2 3 4 5 6 7 8 9 10 11 12 13 14 15 16 17 18 19 20 21 22 23 24 25 26 27 28 29 30 31 32 33 34 35 36 37 38

000
FTUS43 KFSD 301705 AAA
TAFSUX
TAF AMD
KSUX 301705Z 3017/3112 33007KT P6SM BKN017
     FM301830 35004KT P6SM SCT025
     FM301900 VRB04KT P6SM SCT250
     FM302300 13007KT P6SM SCT120
     FM310600 15010KT P6SM BKN100=

USA.gov is the U.S. government's official web portal to all federal, state and local government web resources and services.